Bucharest Otopeni, Romania

8:27 PM EEST on April 01, 2015 (GMT +0300)
Otopeni-Odai | | Change Station
CLOSE
Current Station
Personal Weather Station
Location: Bucuresti, BUCURESTI
Elevation: 312 ft
Nearby Weather Stations

Elev 312 ft 44.53 °N, 26.05 °E | Updated 18 seconds ago

Clear
Clear
51.2 °F
Feels Like 51.2 °F
N
3.0
Wind Variable Wind from West
Gusts 11.0 mph

Today
High -- | Low -- °F
--% Chance of Precip.
Yesterday
High -- | Low -- °F
Precip. -- in
6:57 AM 7:42 PM
Waxing Gibbous, 93% visible
Pressure 29.71 in
Visibility -9999.0 miles
Clouds
Dew Point 34 °F
Humidity 51%
Rainfall 0.00 in
Snow Depth Not available.
UV 0.0 out of 12
Pollen Not available.
Air Quality Not available.
Flu Activity Not available.
METAR LROP 011700Z 27009KT CAVOK 11/M01 Q1006 RMK R88/CLRD// NOSIG

More Conditions Fewer Conditions

Pressure 29.71 in
Visibility -9999.0 miles
Clouds
Dew Point 34 °F
Humidity 51%
Rainfall 0.00 in
Snow Depth Not available.
UV 0.0 out of 12
Pollen Not available.
Air Quality Not available.
Flu Activity Not available.
METAR LROP 011700Z 27009KT CAVOK 11/M01 Q1006 RMK R88/CLRD// NOSIG

More Conditions Fewer Conditions

10-Day Weather Forecast

Almanac

Astronomy

Apr. 01, 2015 Rise Set
Actual Time
Civil Twilight
Nautical Twilight
Astronomical Twilight
Moon
Length of Visible Light
Length of Day
Tomorrow will be .
, % of the Moon is Illuminated

Today's Extremes

Country Highs Country Lows

Community

WunderPhotos

Upload Photos

1,810,011 photos uploaded!

WunderBlogs® & News

Nearby

Air Quality

  Air Quality AQ Index Pollutant
Not available.

Snow Depth

Station Depth Elevation

Earthquake Activity

City Distance Mag. Time & Date
Minimum magnitude displayed is 2.5.

Coastal Water Temperatures

Place Temperature

Stations

Nearby Weather Stations

Station Location Temp. Windchill Dew Point Humidity Wind Precip. Elev Updated Type